Time;durP1;ratioP1;P1;durP2;ratioP2;P2;SDS_P1;SDS_P2;PMS_P1;PMS_P2;Temp;Humidity;BMP_temperature;BMP_pressure;BME280_temperature;BME280_humidity;BME280_pressure;Samples;Min_cycle;Max_cycle;Signal;HPM_P1;HPM_P2
2023/03/08 00:01:22;;;;;;;24.75;14.52;;;5.40;92.20;;;;;;5034534;28;20029;-68
2023/03/08 00:03:51;;;;;;;26.02;13.50;;;5.50;90.90;;;;;;5034703;28;20116;-68
2023/03/08 00:06:17;;;;;;;24.60;13.52;;;5.60;90.00;;;;;;5034612;28;20029;-70
2023/03/08 00:08:43;;;;;;;23.52;13.43;;;5.60;88.40;;;;;;5034893;28;20021;-68
2023/03/08 00:11:11;;;;;;;23.60;13.80;;;5.70;87.20;;;;;;5034315;28;20025;-70
2023/03/08 00:13:37;;;;;;;28.17;14.05;;;5.80;85.20;;;;;;5034633;28;20111;-70
2023/03/08 00:16:05;;;;;;;20.25;12.90;;;5.80;84.20;;;;;;5034546;28;20104;-69
2023/03/08 00:18:32;;;;;;;24.75;14.13;;;5.90;82.70;;;;;;5034556;28;20030;-70
2023/03/08 00:21:00;;;;;;;24.85;13.00;;;5.90;81.10;;;;;;5034518;28;20030;-69
2023/03/08 00:23:26;;;;;;;24.65;13.18;;;6.00;79.70;;;;;;5034125;28;20775;-69
2023/03/08 00:25:53;;;;;;;21.75;12.88;;;6.10;78.40;;;;;;5036008;28;20084;-69
2023/03/08 00:28:18;;;;;;;20.08;11.80;;;6.20;78.00;;;;;;5034540;28;20061;-69
2023/03/08 00:30:44;;;;;;;22.33;12.52;;;6.20;76.80;;;;;;5034489;28;20071;-69
2023/03/08 00:33:10;;;;;;;23.35;12.38;;;6.20;75.80;;;;;;5034022;28;20101;-70
2023/03/08 00:35:35;;;;;;;24.70;12.70;;;6.30;75.30;;;;;;5034162;28;20025;-71
2023/03/08 00:38:01;;;;;;;23.63;11.73;;;6.30;74.60;;;;;;5049203;28;20098;-70
2023/03/08 00:40:27;;;;;;;19.98;11.65;;;6.40;73.80;;;;;;5053572;28;20044;-70
2023/03/08 00:42:52;;;;;;;23.50;11.95;;;6.40;73.00;;;;;;5054023;28;20032;-69
2023/03/08 00:45:18;;;;;;;18.48;11.68;;;6.40;72.30;;;;;;5050195;28;20461;-70
2023/03/08 00:47:43;;;;;;;18.38;10.57;;;6.50;72.10;;;;;;5034150;28;20051;-69
2023/03/08 00:50:10;;;;;;;15.45;10.30;;;6.50;71.60;;;;;;5033204;28;20040;-70
2023/03/08 00:52:35;;;;;;;19.13;10.35;;;6.50;71.10;;;;;;5033809;28;20064;-69
2023/03/08 00:55:01;;;;;;;18.70;11.10;;;6.50;69.90;;;;;;5034134;28;20103;-70
2023/03/08 00:57:27;;;;;;;17.20;9.98;;;6.50;69.70;;;;;;5033319;28;20025;-70
2023/03/08 00:59:52;;;;;;;16.45;10.23;;;6.50;69.50;;;;;;5033710;28;20041;-69
2023/03/08 01:02:18;;;;;;;16.55;9.85;;;6.50;68.50;;;;;;5033124;28;20125;-69
2023/03/08 01:04:44;;;;;;;25.42;9.75;;;6.60;67.80;;;;;;5033672;28;20025;-70
2023/03/08 01:07:09;;;;;;;14.05;8.32;;;6.60;67.20;;;;;;5033290;28;20032;-74
2023/03/08 01:09:35;;;;;;;14.00;8.40;;;6.60;66.40;;;;;;5015621;28;20037;-70
2023/03/08 01:12:01;;;;;;;19.70;8.15;;;6.60;66.60;;;;;;5033482;28;20465;-70
2023/03/08 01:14:26;;;;;;;13.82;7.78;;;6.60;66.10;;;;;;5033097;28;20112;-69
2023/03/08 01:16:52;;;;;;;11.02;7.63;;;6.60;65.60;;;;;;5033475;28;20057;-70
2023/03/08 01:19:18;;;;;;;12.13;7.38;;;6.60;65.80;;;;;;5032824;28;20082;-68
2023/03/08 01:21:43;;;;;;;13.65;7.85;;;6.60;65.90;;;;;;5033475;28;20096;-70
2023/03/08 01:24:09;;;;;;;11.48;6.78;;;6.60;65.70;;;;;;5015655;28;20355;-70
2023/03/08 01:26:34;;;;;;;11.95;7.20;;;6.60;65.70;;;;;;5033142;28;20481;-70
2023/03/08 01:29:00;;;;;;;12.32;7.32;;;6.60;65.60;;;;;;5032907;28;20036;-70
2023/03/08 01:31:28;;;;;;;13.88;8.13;;;6.70;66.00;;;;;;5032709;28;20327;-70
2023/03/08 01:33:55;;;;;;;13.27;7.93;;;6.60;66.40;;;;;;5033164;28;20095;-69
2023/03/08 01:36:23;;;;;;;11.13;7.63;;;6.60;66.70;;;;;;5032748;28;20029;-72
2023/03/08 01:38:49;;;;;;;17.48;8.23;;;6.60;66.90;;;;;;5032792;28;20145;-70
2023/03/08 01:41:25;;;;;;;12.35;7.35;;;6.60;67.10;;;;;;5032487;28;20030;-70
2023/03/08 01:43:52;;;;;;;10.30;7.13;;;6.60;67.20;;;;;;5033054;28;20350;-70
2023/03/08 01:46:24;;;;;;;14.63;6.97;;;6.60;67.40;;;;;;5032562;28;20059;-70
2023/03/08 01:49:16;;;;;;;13.63;7.45;;;6.60;67.40;;;;;;5033204;28;20152;-69
2023/03/08 01:51:52;;;;;;;13.20;8.13;;;6.50;67.70;;;;;;5032909;28;20030;-70
2023/03/08 01:54:22;;;;;;;10.85;7.40;;;6.50;68.00;;;;;;5014839;28;20112;-71
2023/03/08 01:56:52;;;;;;;12.02;8.15;;;6.50;68.30;;;;;;5033018;28;20040;-70
2023/03/08 01:59:21;;;;;;;13.30;8.25;;;6.50;68.60;;;;;;5014387;28;20037;-70
2023/03/08 02:01:48;;;;;;;13.18;8.07;;;6.50;68.80;;;;;;5032664;28;20040;-69
2023/03/08 02:04:14;;;;;;;16.45;8.40;;;6.40;69.10;;;;;;5032396;28;20060;-73
2023/03/08 02:06:41;;;;;;;14.25;7.75;;;6.50;69.50;;;;;;5032614;28;20032;-70
2023/03/08 02:09:07;;;;;;;14.18;8.63;;;6.50;69.70;;;;;;5032536;28;20382;-70
2023/03/08 02:11:35;;;;;;;13.25;7.82;;;6.40;69.90;;;;;;5032170;28;20025;-70
2023/03/08 02:14:02;;;;;;;11.95;8.10;;;6.40;70.40;;;;;;5032655;28;20104;-70
2023/03/08 02:16:28;;;;;;;13.48;8.38;;;6.40;70.50;;;;;;5014550;28;20052;-70
2023/03/08 02:18:57;;;;;;;12.68;8.25;;;6.40;70.70;;;;;;5032620;28;20041;-69
2023/03/08 02:21:24;;;;;;;11.23;7.78;;;6.40;71.00;;;;;;5032107;28;20044;-70
2023/03/08 02:23:49;;;;;;;12.00;7.30;;;6.40;71.00;;;;;;5036635;28;20049;-69
2023/03/08 02:26:15;;;;;;;11.40;7.25;;;6.40;70.80;;;;;;5036193;28;20061;-72
2023/03/08 02:28:42;;;;;;;12.32;8.00;;;6.40;71.10;;;;;;5036749;28;20133;-69
2023/03/08 02:31:08;;;;;;;16.85;8.73;;;6.40;71.30;;;;;;5018685;28;20413;-69
2023/03/08 02:33:34;;;;;;;12.65;8.48;;;6.40;71.40;;;;;;5054196;28;20496;-69
2023/03/08 02:36:05;;;;;;;11.10;7.85;;;6.40;71.60;;;;;;5038611;28;20025;-69
2023/03/08 02:38:30;;;;;;;11.90;8.07;;;6.40;71.80;;;;;;5055443;28;20500;-70
2023/03/08 02:40:56;;;;;;;13.88;8.20;;;6.30;72.10;;;;;;5056241;28;20033;-69
2023/03/08 02:43:22;;;;;;;14.82;8.88;;;6.40;72.20;;;;;;5055397;28;20462;-69
2023/03/08 02:45:48;;;;;;;12.98;8.43;;;6.40;72.30;;;;;;5055930;28;20099;-69
2023/03/08 02:48:14;;;;;;;17.73;8.63;;;6.40;72.60;;;;;;5055935;28;20025;-70
2023/03/08 02:50:40;;;;;;;13.00;8.80;;;6.40;72.80;;;;;;5046027;28;20022;-70
2023/03/08 02:53:06;;;;;;;14.85;8.40;;;6.40;72.70;;;;;;5036480;28;20036;-70
2023/03/08 02:55:36;;;;;;;12.15;8.05;;;6.40;72.80;;;;;;5035931;28;20029;-70
2023/03/08 02:58:06;;;;;;;12.82;8.32;;;6.40;72.90;;;;;;5035901;28;20453;-70
2023/03/08 03:00:32;;;;;;;16.52;8.63;;;6.40;73.10;;;;;;5035675;28;20373;-70
2023/03/08 03:02:58;;;;;;;13.93;8.43;;;6.30;73.10;;;;;;5035952;28;20033;-70
2023/03/08 03:05:24;;;;;;;15.77;9.55;;;6.40;72.70;;;;;;5035538;28;20056;-70
2023/03/08 03:07:50;;;;;;;16.92;9.40;;;6.40;72.80;;;;;;5017733;28;20026;-70
2023/03/08 03:10:16;;;;;;;14.90;9.88;;;6.40;72.80;;;;;;5036029;28;20048;-69
2023/03/08 03:12:42;;;;;;;14.10;9.02;;;6.30;73.00;;;;;;5034933;28;20036;-70
2023/03/08 03:15:09;;;;;;;13.50;8.65;;;6.30;73.00;;;;;;5035383;28;20362;-70
2023/03/08 03:17:36;;;;;;;15.57;9.15;;;6.30;72.90;;;;;;5034928;28;20037;-70
2023/03/08 03:20:04;;;;;;;16.00;9.90;;;6.30;73.00;;;;;;5035214;28;20033;-70
2023/03/08 03:22:29;;;;;;;17.05;9.25;;;6.30;73.00;;;;;;5017254;28;20029;-70
2023/03/08 03:24:55;;;;;;;20.00;10.50;;;6.30;73.00;;;;;;5035136;28;20027;-69
2023/03/08 03:27:21;;;;;;;14.10;9.05;;;6.30;72.70;;;;;;5034798;28;20472;-68
2023/03/08 03:29:47;;;;;;;13.68;8.80;;;6.30;72.50;;;;;;5035396;28;20438;-69
2023/03/08 03:32:12;;;;;;;14.73;9.43;;;6.30;72.30;;;;;;5035172;28;20382;-69
2023/03/08 03:34:38;;;;;;;16.17;9.40;;;6.30;72.20;;;;;;5033325;28;20029;-69
2023/03/08 03:37:04;;;;;;;14.38;8.70;;;6.30;71.80;;;;;;5017183;28;20030;-69
2023/03/08 03:39:33;;;;;;;15.38;9.23;;;6.40;71.40;;;;;;5034060;28;20058;-69
2023/03/08 03:41:59;;;;;;;16.85;9.85;;;6.40;71.10;;;;;;5034951;28;20029;-69
2023/03/08 03:44:27;;;;;;;14.13;9.13;;;6.40;70.50;;;;;;5034418;28;20390;-69
2023/03/08 03:46:53;;;;;;;15.10;9.85;;;6.50;70.10;;;;;;5035237;28;20422;-69
2023/03/08 03:49:18;;;;;;;13.85;9.77;;;6.50;69.40;;;;;;5035400;28;20064;-69
2023/03/08 03:51:44;;;;;;;18.30;9.75;;;6.50;69.80;;;;;;5034447;28;20143;-70
2023/03/08 03:54:09;;;;;;;17.13;10.48;;;6.50;68.70;;;;;;5034794;28;20144;-70
2023/03/08 03:56:35;;;;;;;19.08;9.10;;;6.50;68.50;;;;;;5034292;28;20026;-68
2023/03/08 03:59:01;;;;;;;17.02;10.38;;;6.60;68.30;;;;;;5034667;28;20095;-69
2023/03/08 04:01:29;;;;;;;14.85;9.02;;;6.60;68.10;;;;;;5034793;28;20351;-68
2023/03/08 04:03:55;;;;;;;16.98;10.07;;;6.60;68.10;;;;;;5034864;28;20026;-70
2023/03/08 04:06:30;;;;;;;16.15;10.35;;;6.50;67.80;;;;;;5034859;28;20116;-70
2023/03/08 04:09:05;;;;;;;17.55;9.05;;;6.60;67.50;;;;;;5035236;28;20083;-69
2023/03/08 04:11:36;;;;;;;20.17;10.82;;;6.60;67.60;;;;;;5033906;28;20022;-70
2023/03/08 04:14:02;;;;;;;17.40;10.10;;;6.60;67.40;;;;;;5034916;28;20029;-69
2023/03/08 04:16:30;;;;;;;14.80;9.55;;;6.60;67.30;;;;;;5034217;28;20048;-70
2023/03/08 04:18:58;;;;;;;16.00;10.00;;;6.50;67.10;;;;;;5034326;28;20037;-69
2023/03/08 04:21:24;;;;;;;13.23;8.82;;;6.50;66.70;;;;;;5034223;28;20425;-74
2023/03/08 04:23:50;;;;;;;15.40;9.18;;;6.60;66.20;;;;;;5033914;28;20021;-69
2023/03/08 04:26:16;;;;;;;15.00;8.88;;;6.60;66.00;;;;;;5034282;28;20030;-70
2023/03/08 04:28:42;;;;;;;15.80;8.43;;;6.60;65.90;;;;;;5034035;28;20369;-70
2023/03/08 04:31:21;;;;;;;16.52;9.52;;;6.60;65.40;;;;;;5047460;28;20035;-69
2023/03/08 04:33:47;;;;;;;18.00;9.10;;;6.60;65.10;;;;;;5053926;28;20057;-70
2023/03/08 04:36:15;;;;;;;17.80;8.85;;;6.60;64.90;;;;;;5053883;28;20503;-70
2023/03/08 04:38:41;;;;;;;15.65;9.15;;;6.60;64.70;;;;;;5040892;28;20053;-70
2023/03/08 04:41:12;;;;;;;16.92;8.93;;;6.60;64.20;;;;;;5046212;28;20034;-69
2023/03/08 04:43:58;;;;;;;17.45;8.32;;;6.60;64.20;;;;;;5033899;28;20029;-70
2023/03/08 04:46:26;;;;;;;16.65;8.45;;;6.50;63.80;;;;;;5033328;28;20159;-70
2023/03/08 04:48:54;;;;;;;13.98;9.25;;;6.50;63.70;;;;;;5033692;28;20087;-70
2023/03/08 04:51:22;;;;;;;13.20;8.57;;;6.50;63.60;;;;;;5033740;28;20443;-69
2023/03/08 04:53:48;;;;;;;17.25;8.75;;;6.50;63.20;;;;;;5032135;28;20030;-69
2023/03/08 04:56:15;;;;;;;15.18;9.20;;;6.50;63.10;;;;;;5033804;28;20021;-69
2023/03/08 04:58:41;;;;;;;14.40;8.55;;;6.50;63.20;;;;;;5033470;28;20141;-70
2023/03/08 05:01:08;;;;;;;12.52;8.05;;;6.50;63.40;;;;;;5033796;28;20038;-70
2023/03/08 05:03:34;;;;;;;17.10;8.98;;;6.40;63.60;;;;;;5033365;28;20381;-70
2023/03/08 05:05:59;;;;;;;17.02;9.65;;;6.40;63.60;;;;;;5033384;28;20026;-70
2023/03/08 05:08:25;;;;;;;13.13;8.73;;;6.50;63.70;;;;;;5033358;28;20038;-70
2023/03/08 05:10:59;;;;;;;13.45;8.65;;;6.40;63.80;;;;;;5033222;28;20060;-69
2023/03/08 05:13:26;;;;;;;15.30;9.30;;;6.40;64.00;;;;;;5033644;28;20100;-69
2023/03/08 05:15:52;;;;;;;18.60;10.73;;;6.40;64.20;;;;;;5033325;28;20100;-69
2023/03/08 05:18:18;;;;;;;13.32;9.20;;;6.40;64.30;;;;;;5033368;28;20033;-69
2023/03/08 05:20:51;;;;;;;14.90;8.85;;;6.40;64.50;;;;;;5032861;28;20449;-68
2023/03/08 05:23:17;;;;;;;17.42;10.23;;;6.40;64.70;;;;;;5033420;28;20362;-70
2023/03/08 05:25:42;;;;;;;16.98;10.07;;;6.40;65.00;;;;;;5032533;28;20033;-69
2023/03/08 05:28:08;;;;;;;17.38;9.82;;;6.40;65.20;;;;;;5033225;28;20128;-69
2023/03/08 05:30:34;;;;;;;18.50;9.73;;;6.30;65.30;;;;;;5031597;28;20025;-70
2023/03/08 05:32:59;;;;;;;14.38;9.82;;;6.30;65.60;;;;;;5031833;28;20036;-70
2023/03/08 05:35:25;;;;;;;17.77;9.23;;;6.30;65.80;;;;;;5033066;28;20026;-70
2023/03/08 05:37:51;;;;;;;15.82;10.15;;;6.30;66.10;;;;;;5032477;28;20462;-70
2023/03/08 05:40:17;;;;;;;14.85;9.27;;;6.30;66.30;;;;;;5032983;28;20041;-70
2023/03/08 05:42:42;;;;;;;18.10;10.82;;;6.30;66.40;;;;;;5032344;28;20025;-70
2023/03/08 05:45:08;;;;;;;20.25;9.98;;;6.30;66.60;;;;;;5032665;28;20032;-69
2023/03/08 05:47:34;;;;;;;17.42;10.63;;;6.20;66.80;;;;;;5032200;28;20048;-70
2023/03/08 05:50:00;;;;;;;19.48;11.05;;;6.20;67.20;;;;;;5033131;28;20454;-69
2023/03/08 05:52:25;;;;;;;21.13;10.20;;;6.20;67.40;;;;;;5034028;28;20030;-70
2023/03/08 05:54:51;;;;;;;17.33;9.95;;;6.20;67.60;;;;;;5035156;28;20029;-69
2023/03/08 05:57:16;;;;;;;21.25;10.15;;;6.20;67.50;;;;;;5033576;28;20033;-69
2023/03/08 05:59:42;;;;;;;18.80;9.48;;;6.20;67.50;;;;;;5039546;28;20037;-69
2023/03/08 06:02:08;;;;;;;19.30;10.23;;;6.20;67.30;;;;;;5036177;28;20079;-70
2023/03/08 06:04:33;;;;;;;20.83;9.65;;;6.20;67.30;;;;;;5032340;28;20025;-69
2023/03/08 06:06:59;;;;;;;18.05;10.25;;;6.20;67.40;;;;;;5032771;28;20036;-69
2023/03/08 06:09:25;;;;;;;17.08;10.07;;;6.30;67.40;;;;;;5032641;28;20100;-68
2023/03/08 06:11:50;;;;;;;16.13;9.68;;;6.30;67.40;;;;;;5032205;28;20034;-70
2023/03/08 06:14:16;;;;;;;16.52;9.98;;;6.30;67.30;;;;;;5032563;28;20454;-69
2023/03/08 06:16:42;;;;;;;16.67;9.45;;;6.40;67.30;;;;;;5031799;28;20027;-70
2023/03/08 06:19:08;;;;;;;18.65;9.43;;;6.40;67.00;;;;;;5032297;28;20046;-70
2023/03/08 06:21:33;;;;;;;16.55;9.20;;;6.50;67.00;;;;;;5032011;28;20461;-71
2023/03/08 06:24:00;;;;;;;18.77;10.43;;;6.50;66.70;;;;;;5015041;28;20058;-70
2023/03/08 06:26:25;;;;;;;14.07;8.80;;;6.60;66.40;;;;;;5031834;28;20420;-70
2023/03/08 06:28:51;;;;;;;14.30;9.80;;;6.60;66.20;;;;;;5046225;28;20055;-70
2023/03/08 06:31:18;;;;;;;20.27;10.38;;;6.60;66.20;;;;;;5051971;28;20036;-69
2023/03/08 06:33:43;;;;;;;19.77;9.48;;;6.60;66.40;;;;;;5046233;28;20021;-70
2023/03/08 06:36:20;;;;;;;19.27;9.88;;;6.60;66.40;;;;;;5031960;28;20100;-69
2023/03/08 06:38:47;;;;;;;19.25;10.13;;;6.60;66.10;;;;;;5031933;28;20049;-70
2023/03/08 06:41:14;;;;;;;15.15;9.43;;;6.70;66.00;;;;;;5031963;28;20029;-69
2023/03/08 06:43:40;;;;;;;15.68;8.93;;;6.70;65.60;;;;;;5032098;28;20056;-70
2023/03/08 06:46:11;;;;;;;20.95;9.70;;;6.80;65.70;;;;;;5032728;28;20442;-69
2023/03/08 06:48:38;;;;;;;15.95;9.57;;;6.80;65.40;;;;;;5031839;28;20037;-71
2023/03/08 06:51:04;;;;;;;17.92;9.77;;;6.90;65.30;;;;;;5032269;28;20033;-70
2023/03/08 06:53:30;;;;;;;22.05;11.00;;;6.90;65.10;;;;;;5032062;28;20030;-70
2023/03/08 06:55:56;;;;;;;21.52;10.15;;;7.00;65.10;;;;;;5031864;28;20030;-70
2023/03/08 06:58:22;;;;;;;17.17;10.23;;;7.00;64.90;;;;;;5031862;28;20033;-70
2023/03/08 07:00:48;;;;;;;17.73;10.13;;;7.00;64.70;;;;;;5031327;28;20037;-70
2023/03/08 07:03:14;;;;;;;17.75;10.07;;;7.10;64.70;;;;;;5031862;28;20030;-70
2023/03/08 07:05:40;;;;;;;18.92;10.35;;;7.20;64.10;;;;;;5031187;28;20068;-70
2023/03/08 07:08:06;;;;;;;16.75;9.50;;;7.20;63.80;;;;;;5032725;28;20108;-69
2023/03/08 07:10:33;;;;;;;16.45;9.50;;;7.30;63.70;;;;;;5035528;28;20026;-69
2023/03/08 07:12:59;;;;;;;18.15;9.80;;;7.30;63.50;;;;;;5035106;28;20018;-69
2023/03/08 07:15:25;;;;;;;16.52;9.05;;;7.30;63.50;;;;;;5035150;28;20052;-70
2023/03/08 07:17:54;;;;;;;14.48;9.35;;;7.40;63.30;;;;;;5034656;28;20031;-70
2023/03/08 07:20:21;;;;;;;16.08;8.70;;;7.40;63.10;;;;;;5035334;28;20039;-69
2023/03/08 07:22:47;;;;;;;14.50;8.65;;;7.50;62.60;;;;;;5035169;28;20124;-70
2023/03/08 07:25:15;;;;;;;17.40;8.98;;;7.60;62.50;;;;;;5035343;28;20060;-71
2023/03/08 07:27:41;;;;;;;17.85;9.10;;;7.70;62.20;;;;;;5034875;28;20025;-69
2023/03/08 07:30:08;;;;;;;12.43;7.57;;;7.80;62.00;;;;;;5035412;28;20033;-68
2023/03/08 07:32:34;;;;;;;17.27;9.13;;;7.90;61.00;;;;;;5035237;28;20036;-69
2023/03/08 07:35:00;;;;;;;16.83;8.50;;;8.00;61.10;;;;;;5034908;28;20076;-68
2023/03/08 07:37:26;;;;;;;15.07;7.60;;;8.10;60.50;;;;;;5034879;28;20033;-69
2023/03/08 07:39:52;;;;;;;10.93;7.15;;;8.20;60.20;;;;;;5034687;28;20045;-69
2023/03/08 07:42:17;;;;;;;12.35;7.57;;;8.40;58.90;;;;;;5017261;28;20021;-69
2023/03/08 07:44:43;;;;;;;12.68;7.75;;;8.70;58.70;;;;;;5017030;28;20022;-69
2023/03/08 07:47:10;;;;;;;15.05;8.15;;;9.10;58.20;;;;;;5034974;28;20025;-69
2023/03/08 07:49:35;;;;;;;11.40;7.30;;;9.40;57.40;;;;;;5017231;28;20034;-70
2023/03/08 07:52:01;;;;;;;11.75;6.82;;;9.70;55.70;;;;;;5034215;28;20390;-69
2023/03/08 07:54:27;;;;;;;11.88;6.63;;;10.10;55.00;;;;;;5034855;28;20108;-69
2023/03/08 07:56:54;;;;;;;14.43;7.60;;;10.40;53.20;;;;;;5034434;28;20259;-69
2023/03/08 07:59:24;;;;;;;11.38;6.65;;;10.60;52.60;;;;;;5017191;28;20029;-69
2023/03/08 08:01:50;;;;;;;11.60;6.60;;;10.90;51.50;;;;;;5034358;28;20104;-70
2023/03/08 08:04:16;;;;;;;9.98;6.75;;;11.00;51.20;;;;;;5017202;28;20105;-69
2023/03/08 08:06:41;;;;;;;10.05;6.20;;;11.30;50.20;;;;;;5034310;28;20030;-71
2023/03/08 08:09:11;;;;;;;10.18;6.32;;;11.60;49.40;;;;;;5034552;28;20036;-70
2023/03/08 08:11:37;;;;;;;11.43;6.13;;;11.70;48.90;;;;;;5034502;28;20037;-70
2023/03/08 08:14:04;;;;;;;12.15;6.63;;;12.00;48.60;;;;;;5034001;28;20030;-71
2023/03/08 08:16:30;;;;;;;9.68;5.78;;;12.30;47.20;;;;;;5034644;28;20022;-69
2023/03/08 08:18:56;;;;;;;9.30;5.85;;;12.50;46.20;;;;;;5033787;28;20048;-70
2023/03/08 08:21:22;;;;;;;8.30;5.35;;;12.80;45.80;;;;;;5033798;28;20072;-69
2023/03/08 08:23:48;;;;;;;15.52;5.45;;;13.00;45.20;;;;;;5033980;28;20445;-69
2023/03/08 08:26:19;;;;;;;9.32;5.68;;;13.60;44.30;;;;;;5050656;28;20408;-68
2023/03/08 08:28:45;;;;;;;;;;;13.80;43.10;;;;;;5053852;28;20029;-69
2023/03/08 08:31:14;;;;;;;8.00;5.22;;;13.90;42.10;;;;;;5053661;28;19908;-69
2023/03/08 08:33:40;;;;;;;10.07;5.35;;;13.70;42.10;;;;;;5054063;28;20438;-70
2023/03/08 08:36:10;;;;;;;7.40;5.05;;;13.50;43.00;;;;;;5054012;28;20056;-70
2023/03/08 08:38:36;;;;;;;10.45;5.22;;;13.40;43.10;;;;;;5054001;28;20041;-69
2023/03/08 08:41:05;;;;;;;10.50;5.57;;;13.40;42.70;;;;;;5053522;28;20238;-70
2023/03/08 08:43:33;;;;;;;10.98;5.03;;;13.30;43.30;;;;;;5045461;28;20021;-70
2023/03/08 08:45:59;;;;;;;11.73;5.55;;;13.20;42.80;;;;;;5033665;28;20078;-70
2023/03/08 08:48:26;;;;;;;7.38;4.60;;;13.20;42.60;;;;;;5033554;28;20462;-69
2023/03/08 08:50:52;;;;;;;11.32;4.93;;;13.10;42.60;;;;;;5033152;28;20473;-70
2023/03/08 08:53:19;;;;;;;8.55;5.28;;;13.10;42.40;;;;;;5033900;28;20022;-69
2023/03/08 08:55:44;;;;;;;10.18;4.47;;;13.10;42.60;;;;;;5033021;28;20559;-71
2023/03/08 08:58:11;;;;;;;8.15;5.25;;;13.10;43.00;;;;;;5033710;28;20056;-70
2023/03/08 09:00:37;;;;;;;7.88;5.00;;;12.80;43.40;;;;;;5033180;28;20071;-68
2023/03/08 09:03:03;;;;;;;8.95;5.63;;;12.50;43.70;;;;;;5033332;28;20030;-69
2023/03/08 09:05:30;;;;;;;9.48;5.45;;;12.50;44.10;;;;;;5033666;28;20029;-69
2023/03/08 09:07:58;;;;;;;11.88;5.47;;;12.50;44.70;;;;;;5033271;28;20120;-68
2023/03/08 09:10:29;;;;;;;8.77;5.63;;;12.60;44.60;;;;;;5033395;28;20381;-69
2023/03/08 09:12:55;;;;;;;11.18;5.47;;;12.70;44.40;;;;;;5032996;28;20060;-70
2023/03/08 09:15:21;;;;;;;8.70;5.18;;;12.70;44.20;;;;;;5033526;28;20530;-69
2023/03/08 09:17:48;;;;;;;9.10;5.43;;;12.80;43.60;;;;;;5032517;28;20485;-70
2023/03/08 09:20:14;;;;;;;9.05;5.75;;;12.70;43.30;;;;;;5033193;28;20037;-70
2023/03/08 09:22:40;;;;;;;9.10;5.80;;;12.70;44.20;;;;;;5032881;28;20416;-69
2023/03/08 09:25:07;;;;;;;10.20;5.30;;;12.60;44.20;;;;;;5032360;28;20037;-69
2023/03/08 09:27:33;;;;;;;10.15;6.00;;;12.60;45.00;;;;;;5033289;28;20033;-69
2023/03/08 09:29:59;;;;;;;10.15;6.18;;;12.50;44.40;;;;;;5032558;28;20029;-69
2023/03/08 09:32:25;;;;;;;11.73;5.63;;;12.60;44.80;;;;;;5033085;28;20025;-69
2023/03/08 09:34:52;;;;;;;9.43;6.15;;;12.70;44.60;;;;;;5032215;28;20029;-70
2023/03/08 09:37:18;;;;;;;11.45;6.25;;;12.80;44.40;;;;;;5032871;28;20036;-68
2023/03/08 09:39:44;;;;;;;8.50;5.97;;;12.80;44.50;;;;;;5032971;28;20077;-70
2023/03/08 09:42:39;;;;;;;9.38;6.07;;;12.80;44.40;;;;;;5032368;28;20079;-70
2023/03/08 09:45:32;;;;;;;9.35;5.28;;;12.80;44.70;;;;;;5032525;28;20030;-68
2023/03/08 09:48:16;;;;;;;13.82;6.30;;;12.90;44.70;;;;;;5029039;28;20232;-69
2023/03/08 09:50:45;;;;;;;10.50;5.63;;;12.90;44.20;;;;;;5032771;28;20029;-69
2023/03/08 09:53:16;;;;;;;9.40;5.80;;;12.90;44.50;;;;;;5032371;28;20036;-69
2023/03/08 09:56:19;;;;;;;8.00;5.47;;;12.80;43.80;;;;;;5032649;28;20036;-68
2023/03/08 09:58:57;;;;;;;8.18;5.28;;;12.80;44.20;;;;;;5032686;28;20057;-69
2023/03/08 10:01:45;;;;;;;12.13;5.20;;;12.70;44.30;;;;;;5032650;28;20045;-69
2023/03/08 10:04:25;;;;;;;8.63;5.07;;;12.60;44.10;;;;;;5032008;28;20381;-69
2023/03/08 10:07:12;;;;;;;7.50;4.90;;;12.50;44.20;;;;;;5031740;28;20463;-72
2023/03/08 10:09:43;;;;;;;8.77;4.55;;;12.40;44.60;;;;;;5032444;28;20037;-69
2023/03/08 10:12:21;;;;;;;9.43;5.28;;;12.30;44.70;;;;;;5031799;28;20103;-70
2023/03/08 10:14:50;;;;;;;11.82;6.15;;;12.30;45.10;;;;;;5031951;28;20529;-69
2023/03/08 10:17:29;;;;;;;7.88;4.95;;;12.10;45.40;;;;;;5032444;28;20026;-70
2023/03/08 10:20:06;;;;;;;8.20;5.00;;;12.10;45.60;;;;;;5043391;28;20083;-69
2023/03/08 10:22:37;;;;;;;6.93;4.80;;;12.00;46.10;;;;;;5052581;28;20100;-69
2023/03/08 10:25:15;;;;;;;;;;;11.90;46.50;;;;;;5052300;28;20121;-69
2023/03/08 10:27:41;;;;;;;7.63;5.32;;;11.80;46.70;;;;;;5052244;28;19905;-69
2023/03/08 10:30:16;;;;;;;12.63;7.00;;;11.70;47.20;;;;;;5052150;28;20087;-70
2023/03/08 10:32:48;;;;;;;13.30;7.47;;;11.70;47.70;;;;;;5052548;28;20025;-69
2023/03/08 10:35:15;;;;;;;11.82;7.43;;;11.60;48.30;;;;;;5051889;28;20032;-69
2023/03/08 10:37:40;;;;;;;12.05;7.75;;;11.50;48.90;;;;;;5051816;28;20040;-69
2023/03/08 10:40:15;;;;;;;14.30;8.68;;;11.40;49.60;;;;;;5051564;28;20373;-69
2023/03/08 10:42:52;;;;;;;12.88;8.52;;;11.30;50.10;;;;;;5052487;28;20381;-70
2023/03/08 10:45:21;;;;;;;18.17;8.75;;;11.30;50.70;;;;;;5056231;28;20032;-70
2023/03/08 10:48:01;;;;;;;14.15;9.82;;;11.30;51.00;;;;;;5056216;28;20025;-69
2023/03/08 10:50:34;;;;;;;19.63;10.05;;;11.20;51.40;;;;;;5041822;28;20061;-70
2023/03/08 10:53:09;;;;;;;17.58;9.68;;;11.10;51.70;;;;;;5035569;28;20080;-71
2023/03/08 10:55:46;;;;;;;15.60;9.02;;;11.20;51.90;;;;;;5036478;28;20482;-68
2023/03/08 10:58:36;;;;;;;17.10;10.15;;;11.20;52.20;;;;;;5035386;28;20033;-69
2023/03/08 11:01:06;;;;;;;18.45;11.15;;;11.20;52.40;;;;;;5035346;28;20033;-69
2023/03/08 11:03:33;;;;;;;16.85;10.13;;;11.20;52.60;;;;;;5035367;28;20030;-70
2023/03/08 11:06:12;;;;;;;18.20;10.95;;;11.20;52.80;;;;;;5035273;28;20025;-70
2023/03/08 11:08:49;;;;;;;23.92;11.85;;;11.20;53.00;;;;;;5035531;28;20029;-69
2023/03/08 11:11:15;;;;;;;16.90;10.77;;;11.20;53.50;;;;;;5035270;28;20025;-69
2023/03/08 11:13:46;;;;;;;21.42;11.05;;;11.20;53.60;;;;;;5035801;28;20026;-69
2023/03/08 11:16:20;;;;;;;21.58;12.68;;;11.20;54.00;;;;;;5038224;28;20029;-69
2023/03/08 11:19:23;;;;;;;20.02;11.80;;;11.20;53.90;;;;;;5038944;28;20026;-70
2023/03/08 11:22:06;;;;;;;18.95;11.52;;;11.30;53.40;;;;;;5035825;28;20112;-70
2023/03/08 11:24:32;;;;;;;23.08;11.20;;;11.40;53.60;;;;;;5035232;28;20032;-69
2023/03/08 11:27:17;;;;;;;18.73;11.65;;;11.50;53.70;;;;;;5017058;28;20025;-70
2023/03/08 11:30:02;;;;;;;19.88;11.63;;;11.50;53.80;;;;;;5035460;28;20044;-70
2023/03/08 11:32:51;;;;;;;24.05;11.32;;;11.50;54.30;;;;;;4984717;28;20033;-69
2023/03/08 11:35:36;;;;;;;24.50;12.05;;;11.50;54.90;;;;;;4988603;28;20064;-69
2023/03/08 11:38:16;;;;;;;21.20;11.27;;;11.60;55.00;;;;;;5034580;28;20500;-69
2023/03/08 11:41:09;;;;;;;20.45;11.02;;;11.50;54.60;;;;;;5035063;28;20386;-69
2023/03/08 11:43:46;;;;;;;23.38;12.32;;;11.60;55.10;;;;;;5035188;28;20045;-68
2023/03/08 11:46:38;;;;;;;19.23;11.60;;;11.60;55.20;;;;;;5034668;28;20083;-68
2023/03/08 11:49:08;;;;;;;20.88;12.23;;;11.50;56.90;;;;;;4989735;28;20044;-70
2023/03/08 11:52:13;;;;;;;21.58;12.02;;;11.50;57.70;;;;;;5034535;28;20026;-70
2023/03/08 11:55:10;;;;;;;20.92;12.55;;;11.40;58.70;;;;;;5015713;28;20026;-69
2023/03/08 11:57:41;;;;;;;19.10;12.27;;;11.30;58.80;;;;;;5034662;28;20060;-70
2023/03/08 12:00:21;;;;;;;18.90;11.02;;;11.30;58.30;;;;;;5034177;28;20038;-69
2023/03/08 12:02:48;;;;;;;18.08;11.60;;;11.30;57.40;;;;;;5034600;28;20038;-70
2023/03/08 12:05:28;;;;;;;22.65;12.50;;;11.30;57.10;;;;;;5034106;28;20032;-70
2023/03/08 12:08:01;;;;;;;17.38;10.32;;;11.20;56.70;;;;;;5034279;28;20466;-69
2023/03/08 12:11:05;;;;;;;20.15;12.23;;;11.10;56.90;;;;;;5034639;28;20181;-69
2023/03/08 12:14:08;;;;;;;16.60;10.75;;;11.00;57.20;;;;;;4930941;28;20127;-70
2023/03/08 12:16:54;;;;;;;19.75;11.80;;;10.90;57.80;;;;;;5018488;28;20033;-69
2023/03/08 12:19:29;;;;;;;19.83;11.57;;;10.80;58.40;;;;;;5034121;28;20025;-69
2023/03/08 12:22:04;;;;;;;28.90;12.85;;;10.70;59.40;;;;;;5034678;28;20116;-69
2023/03/08 12:25:04;;;;;;;21.17;12.35;;;10.70;60.20;;;;;;5039300;28;20074;-70
2023/03/08 12:27:39;;;;;;;21.58;13.07;;;10.60;61.10;;;;;;5054218;28;20086;-70
2023/03/08 12:30:42;;;;;;;25.88;13.05;;;10.60;61.80;;;;;;5053851;28;20055;-70
2023/03/08 12:33:12;;;;;;;21.25;13.23;;;10.50;62.70;;;;;;5053763;28;20036;-69
2023/03/08 12:35:51;;;;;;;24.17;13.73;;;10.50;63.40;;;;;;5054032;28;20056;-70
2023/03/08 12:38:17;;;;;;;24.40;14.55;;;10.50;64.10;;;;;;5053590;28;20049;-69
2023/03/08 12:40:44;;;;;;;24.95;14.13;;;10.40;65.30;;;;;;5054092;28;20431;-70
2023/03/08 12:43:15;;;;;;;26.27;13.98;;;10.30;65.40;;;;;;5045116;28;20366;-70
2023/03/08 12:45:43;;;;;;;21.55;13.73;;;10.30;65.90;;;;;;5035456;28;20030;-70
2023/03/08 12:48:22;;;;;;;22.75;15.00;;;10.20;66.40;;;;;;5034365;28;20462;-70
2023/03/08 12:51:02;;;;;;;27.05;14.55;;;10.20;67.30;;;;;;5034899;28;20398;-70
2023/03/08 12:53:40;;;;;;;26.05;14.68;;;10.10;67.80;;;;;;5034577;28;20029;-69